San Antonio, Texas
Traffic Map
Current Weather Conditions
San Antonio, Texas
Clear
Clear
25°
Feels Like: 26°
Wind Chill: 25° Ceiling: Unl
Heat Index: 26° Visibility: 10mi
Dew Point: 22° Wind: 5mph
Humidity: 84% Direction: 110° (ESE)
Pressure: 30.02in Gusts: 0mph
Raw Report DataKSKF 261258Z AUTO 11004KT 10SM CLR 25/22 A3002 RMK AO2 SLP158 T02520223 $
Traffic Incident Summary
Active as of:
Severity:
Category:
InformationThere was an issue retrieving the traffic information for this location. Please try a different location or try again shortly.
Advertisements
Track Severe Weather on mobile